VIR15E EGLL-EDDM
Flight info
| Callsign | VIR15E |
|---|---|
| Flight time | N/A |
| Altitude | 41000 |
| Route | DET L6 DVR UL9 KONAN UL607 SPI DCT MOVUM T109 HAREM T104 ROKIL ROKIL1A |
| Aircraft | A339/H-SADE1E2E3GHIJ3J5M1P2RWXY/LB2D1 |
Departure
| Time | 2026-04-29 18:09 |
|---|---|
| Airport | London Heathrow Airport (EGLL) |
Arrival
| Time | N/A |
|---|---|
| Airport | Munich Airport (EDDM) |
| Time | Latitude | Longitude | Altitude | Speed | Heading |
|---|---|---|---|---|---|
| 2026-04-29 17:29 | 51.47270 | -0.46302 | 93 ft | 0 kts | 55° |
| 2026-04-29 17:44 | 51.47264 | -0.46316 | 94 ft | 5 kts | 55° |
| 2026-04-29 17:44 | 51.47245 | -0.46360 | 92 ft | 3 kts | 55° |
| 2026-04-29 17:45 | 51.47230 | -0.46392 | 92 ft | 3 kts | 17° |
| 2026-04-29 17:45 | 51.47215 | -0.46401 | 93 ft | 0 kts | 325° |
| 2026-04-29 17:53 | 51.47215 | -0.46402 | 92 ft | 0 kts | 325° |
| 2026-04-29 17:53 | 51.47225 | -0.46414 | 96 ft | 2 kts | 319° |
| 2026-04-29 17:54 | 51.47233 | -0.46457 | 96 ft | 7 kts | 289° |
| 2026-04-29 17:54 | 51.47241 | -0.46560 | 93 ft | 12 kts | 271° |
| 2026-04-29 17:54 | 51.47240 | -0.46722 | 91 ft | 18 kts | 269° |
| 2026-04-29 17:54 | 51.47202 | -0.46858 | 93 ft | 9 kts | 197° |
| 2026-04-29 17:55 | 51.47125 | -0.46869 | 94 ft | 13 kts | 181° |
| 2026-04-29 17:55 | 51.47013 | -0.46869 | 95 ft | 18 kts | 179° |
| 2026-04-29 17:55 | 51.46871 | -0.46864 | 95 ft | 22 kts | 178° |
| 2026-04-29 17:55 | 51.46758 | -0.46879 | 101 ft | 12 kts | 211° |
| 2026-04-29 17:56 | 51.46748 | -0.46968 | 99 ft | 11 kts | 265° |
| 2026-04-29 17:56 | 51.46747 | -0.47137 | 97 ft | 19 kts | 270° |
| 2026-04-29 17:56 | 51.46747 | -0.47371 | 96 ft | 24 kts | 269° |
| 2026-04-29 17:56 | 51.46745 | -0.47662 | 94 ft | 20 kts | 269° |
| 2026-04-29 17:57 | 51.46744 | -0.47904 | 95 ft | 22 kts | 269° |
| 2026-04-29 17:57 | 51.46744 | -0.48028 | 95 ft | 1 kts | 269° |
| 2026-04-29 17:57 | 51.46743 | -0.48063 | 96 ft | 5 kts | 269° |
| 2026-04-29 17:57 | 51.46743 | -0.48069 | 96 ft | 0 kts | 269° |
| 2026-04-29 17:58 | 51.46743 | -0.48087 | 96 ft | 3 kts | 269° |
| 2026-04-29 17:59 | 51.46743 | -0.48140 | 97 ft | 6 kts | 269° |
| 2026-04-29 17:59 | 51.46743 | -0.48218 | 99 ft | 8 kts | 269° |
| 2026-04-29 17:59 | 51.46742 | -0.48328 | 100 ft | 12 kts | 269° |
| 2026-04-29 17:59 | 51.46741 | -0.48491 | 98 ft | 18 kts | 269° |
| 2026-04-29 18:00 | 51.46733 | -0.48701 | 100 ft | 17 kts | 257° |
| 2026-04-29 18:00 | 51.46650 | -0.48750 | 99 ft | 14 kts | 185° |
| 2026-04-29 18:00 | 51.46609 | -0.48764 | 100 ft | 0 kts | 194° |
| 2026-04-29 18:04 | 51.46597 | -0.48769 | 99 ft | 4 kts | 194° |
| 2026-04-29 18:04 | 51.46548 | -0.48786 | 98 ft | 11 kts | 189° |
| 2026-04-29 18:05 | 51.46482 | -0.48716 | 100 ft | 12 kts | 116° |
| 2026-04-29 18:05 | 51.46478 | -0.48672 | 101 ft | 0 kts | 94° |
| 2026-04-29 18:08 | 51.46478 | -0.48671 | 99 ft | 1 kts | 94° |
| 2026-04-29 18:09 | 51.46474 | -0.48568 | 102 ft | 37 kts | 92° |
| 2026-04-29 18:09 | 51.46487 | -0.47609 | 100 ft | 130 kts | 87° |
| 2026-04-29 18:09 | 51.46486 | -0.45964 | 671 ft | 159 kts | 88° |
| 2026-04-29 18:09 | 51.46417 | -0.44135 | 1638 ft | 151 kts | 90° |
| 2026-04-29 18:10 | 51.46412 | -0.42550 | 2114 ft | 144 kts | 86° |
| 2026-04-29 18:10 | 51.46317 | -0.40826 | 2328 ft | 169 kts | 102° |
| 2026-04-29 18:10 | 51.45808 | -0.38979 | 2860 ft | 191 kts | 115° |
| 2026-04-29 18:10 | 51.45073 | -0.37053 | 3297 ft | 213 kts | 118° |
| 2026-04-29 18:11 | 51.44468 | -0.34771 | 3704 ft | 229 kts | 106° |
| 2026-04-29 18:11 | 51.43936 | -0.32326 | 4415 ft | 235 kts | 108° |
| 2026-04-29 18:11 | 51.43414 | -0.29825 | 5165 ft | 238 kts | 104° |
| 2026-04-29 18:11 | 51.43084 | -0.27239 | 5894 ft | 242 kts | 101° |
| 2026-04-29 18:12 | 51.42781 | -0.24562 | 6649 ft | 245 kts | 101° |
| 2026-04-29 18:12 | 51.42479 | -0.21845 | 7378 ft | 249 kts | 101° |
| 2026-04-29 18:12 | 51.42180 | -0.19120 | 7697 ft | 253 kts | 101° |
| 2026-04-29 18:12 | 51.41876 | -0.16326 | 7866 ft | 257 kts | 101° |
| 2026-04-29 18:13 | 51.41569 | -0.13507 | 8041 ft | 255 kts | 101° |
| 2026-04-29 18:13 | 51.41266 | -0.10711 | 8135 ft | 254 kts | 101° |
| 2026-04-29 18:13 | 51.40964 | -0.07920 | 8222 ft | 256 kts | 101° |
| 2026-04-29 18:13 | 51.40663 | -0.05142 | 8225 ft | 256 kts | 101° |
| 2026-04-29 18:14 | 51.40358 | -0.02331 | 8227 ft | 255 kts | 101° |
| 2026-04-29 18:14 | 51.40051 | 0.00471 | 8233 ft | 254 kts | 101° |
| 2026-04-29 18:14 | 51.39736 | 0.03238 | 8235 ft | 253 kts | 101° |
| 2026-04-29 18:14 | 51.39417 | 0.06035 | 8235 ft | 256 kts | 101° |
| 2026-04-29 18:15 | 51.39093 | 0.08860 | 8311 ft | 261 kts | 101° |
| 2026-04-29 18:15 | 51.38768 | 0.11710 | 9020 ft | 261 kts | 101° |
| 2026-04-29 18:15 | 51.38452 | 0.14550 | 9966 ft | 258 kts | 101° |
| 2026-04-29 18:15 | 51.38137 | 0.17440 | 10485 ft | 271 kts | 101° |
| 2026-04-29 18:16 | 51.37807 | 0.20483 | 10725 ft | 291 kts | 101° |
| 2026-04-29 18:16 | 51.37447 | 0.23783 | 10989 ft | 309 kts | 101° |
| 2026-04-29 18:16 | 51.37078 | 0.27167 | 11486 ft | 316 kts | 101° |
| 2026-04-29 18:16 | 51.36704 | 0.30641 | 12169 ft | 319 kts | 101° |
| 2026-04-29 18:17 | 51.36324 | 0.34184 | 12730 ft | 326 kts | 101° |
| 2026-04-29 18:17 | 51.35947 | 0.37768 | 13465 ft | 327 kts | 101° |
| 2026-04-29 18:17 | 51.35575 | 0.41373 | 14147 ft | 330 kts | 101° |
| 2026-04-29 18:17 | 51.35199 | 0.45026 | 14688 ft | 334 kts | 101° |
| 2026-04-29 18:18 | 51.34807 | 0.48680 | 15243 ft | 338 kts | 101° |
| 2026-04-29 18:18 | 51.34390 | 0.52375 | 15971 ft | 336 kts | 101° |
| 2026-04-29 18:18 | 51.33963 | 0.56064 | 16548 ft | 341 kts | 101° |
| 2026-04-29 18:18 | 51.33518 | 0.59818 | 17003 ft | 347 kts | 101° |
| 2026-04-29 18:19 | 51.33059 | 0.63628 | 17619 ft | 350 kts | 101° |
| 2026-04-29 18:19 | 51.32593 | 0.67457 | 17895 ft | 350 kts | 101° |
| 2026-04-29 18:19 | 51.32126 | 0.71269 | 18173 ft | 357 kts | 101° |
| 2026-04-29 18:19 | 51.31665 | 0.75179 | 18268 ft | 355 kts | 99° |
| 2026-04-29 18:20 | 51.31348 | 0.79093 | 18496 ft | 357 kts | 96° |
| 2026-04-29 18:20 | 51.31095 | 0.82995 | 19054 ft | 358 kts | 96° |
| 2026-04-29 18:20 | 51.30842 | 0.86958 | 19572 ft | 361 kts | 96° |
| 2026-04-29 18:20 | 51.30593 | 0.90969 | 20055 ft | 364 kts | 96° |
| 2026-04-29 18:21 | 51.30352 | 0.94994 | 20664 ft | 364 kts | 96° |
| 2026-04-29 18:21 | 51.30100 | 0.99053 | 20993 ft | 371 kts | 96° |
| 2026-04-29 18:21 | 51.29830 | 1.03160 | 21089 ft | 371 kts | 96° |
| 2026-04-29 18:21 | 51.29566 | 1.07228 | 21180 ft | 365 kts | 96° |
| 2026-04-29 18:22 | 51.29301 | 1.11295 | 21232 ft | 371 kts | 96° |
| 2026-04-29 18:22 | 51.29015 | 1.15439 | 21231 ft | 373 kts | 99° |
| 2026-04-29 18:22 | 51.28234 | 1.19395 | 21265 ft | 377 kts | 116° |
| 2026-04-29 18:22 | 51.26748 | 1.22877 | 21767 ft | 381 kts | 126° |
| 2026-04-29 18:23 | 51.25123 | 1.26220 | 22418 ft | 380 kts | 126° |
| 2026-04-29 18:23 | 51.23502 | 1.29565 | 22593 ft | 381 kts | 126° |
| 2026-04-29 18:23 | 51.21872 | 1.32967 | 22750 ft | 388 kts | 126° |
| 2026-04-29 18:23 | 51.20305 | 1.36430 | 22964 ft | 380 kts | 119° |
| 2026-04-29 18:24 | 51.19341 | 1.40268 | 23095 ft | 377 kts | 104° |
| 2026-04-29 18:24 | 51.18991 | 1.44411 | 23213 ft | 381 kts | 96° |
| 2026-04-29 18:24 | 51.18702 | 1.48669 | 23373 ft | 392 kts | 96° |
| 2026-04-29 18:24 | 51.18407 | 1.52992 | 23978 ft | 391 kts | 96° |
| 2026-04-29 18:25 | 51.18118 | 1.57285 | 24681 ft | 387 kts | 96° |
| 2026-04-29 18:25 | 51.17831 | 1.61570 | 25045 ft | 393 kts | 96° |
| 2026-04-29 18:25 | 51.17540 | 1.65893 | 25388 ft | 398 kts | 96° |
| 2026-04-29 18:25 | 51.17248 | 1.70267 | 25987 ft | 396 kts | 96° |
| 2026-04-29 18:26 | 51.16954 | 1.74650 | 26412 ft | 400 kts | 96° |
| 2026-04-29 18:26 | 51.16654 | 1.79100 | 26732 ft | 405 kts | 96° |
| 2026-04-29 18:26 | 51.16355 | 1.83559 | 27301 ft | 404 kts | 96° |
| 2026-04-29 18:26 | 51.16054 | 1.88021 | 27697 ft | 407 kts | 96° |
| 2026-04-29 18:27 | 51.15745 | 1.92543 | 28022 ft | 412 kts | 96° |
| 2026-04-29 18:27 | 51.15424 | 1.97080 | 28482 ft | 413 kts | 96° |
| 2026-04-29 18:27 | 51.15100 | 2.01639 | 28887 ft | 416 kts | 96° |
| 2026-04-29 18:27 | 51.14775 | 2.06232 | 29091 ft | 418 kts | 96° |
| 2026-04-29 18:28 | 51.14448 | 2.10831 | 29192 ft | 417 kts | 96° |
| 2026-04-29 18:28 | 51.13797 | 2.19976 | 29204 ft | 418 kts | 96° |
| 2026-04-29 18:29 | 51.13139 | 2.29171 | 29208 ft | 418 kts | 97° |
| 2026-04-29 18:29 | 51.12476 | 2.38369 | 29211 ft | 417 kts | 96° |
| 2026-04-29 18:30 | 51.11781 | 2.47516 | 29218 ft | 416 kts | 97° |
| 2026-04-29 18:30 | 51.11085 | 2.56662 | 29225 ft | 416 kts | 97° |
| 2026-04-29 18:31 | 51.10386 | 2.65796 | 29227 ft | 417 kts | 97° |
| 2026-04-29 18:31 | 51.09917 | 2.70309 | 29499 ft | 420 kts | 104° |
| 2026-04-29 18:31 | 51.09152 | 2.74794 | 29950 ft | 421 kts | 104° |
| 2026-04-29 18:31 | 51.08399 | 2.79308 | 30334 ft | 423 kts | 104° |
| 2026-04-29 18:32 | 51.07643 | 2.83856 | 30700 ft | 425 kts | 104° |
| 2026-04-29 18:32 | 51.06113 | 2.92964 | 31479 ft | 428 kts | 104° |
| 2026-04-29 18:32 | 51.05337 | 2.97549 | 31818 ft | 431 kts | 104° |
| 2026-04-29 18:33 | 51.04552 | 3.02169 | 32157 ft | 433 kts | 104° |
| 2026-04-29 18:33 | 51.03760 | 3.06809 | 32491 ft | 435 kts | 104° |
| 2026-04-29 18:33 | 51.02972 | 3.11401 | 32801 ft | 437 kts | 104° |
| 2026-04-29 18:33 | 51.02158 | 3.16129 | 33055 ft | 439 kts | 104° |
| 2026-04-29 18:34 | 51.01347 | 3.20820 | 33301 ft | 441 kts | 104° |
| 2026-04-29 18:34 | 51.00808 | 3.23933 | 33446 ft | 442 kts | 104° |
| 2026-04-29 18:34 | 50.99723 | 3.30182 | 33701 ft | 444 kts | 104° |
| 2026-04-29 18:34 | 50.98887 | 3.34964 | 33999 ft | 443 kts | 104° |
| 2026-04-29 18:35 | 50.98076 | 3.39603 | 34249 ft | 442 kts | 104° |
| 2026-04-29 18:35 | 50.97252 | 3.44315 | 34440 ft | 442 kts | 104° |
| 2026-04-29 18:35 | 50.96427 | 3.49016 | 34616 ft | 443 kts | 104° |
| 2026-04-29 18:35 | 50.95598 | 3.53726 | 34790 ft | 443 kts | 104° |
| 2026-04-29 18:36 | 50.94767 | 3.58440 | 34968 ft | 443 kts | 104° |
| 2026-04-29 18:36 | 50.93934 | 3.63144 | 35149 ft | 444 kts | 104° |
| 2026-04-29 18:36 | 50.93096 | 3.67865 | 35318 ft | 444 kts | 104° |
| 2026-04-29 18:36 | 50.92257 | 3.72578 | 35489 ft | 445 kts | 104° |
| 2026-04-29 18:37 | 50.91423 | 3.77256 | 35691 ft | 445 kts | 104° |
| 2026-04-29 18:37 | 50.90578 | 3.81969 | 35919 ft | 444 kts | 103° |
| 2026-04-29 18:37 | 50.89733 | 3.86679 | 36096 ft | 444 kts | 104° |
| 2026-04-29 18:37 | 50.88886 | 3.91396 | 36255 ft | 445 kts | 104° |
| 2026-04-29 18:38 | 50.88037 | 3.96111 | 36444 ft | 445 kts | 104° |
| 2026-04-29 18:38 | 50.87182 | 4.00839 | 36614 ft | 446 kts | 104° |
| 2026-04-29 18:38 | 50.86326 | 4.05563 | 36791 ft | 446 kts | 104° |
| 2026-04-29 18:38 | 50.85477 | 4.10235 | 36951 ft | 447 kts | 104° |
| 2026-04-29 18:39 | 50.84615 | 4.14966 | 37122 ft | 447 kts | 104° |
| 2026-04-29 18:39 | 50.83752 | 4.19694 | 37293 ft | 448 kts | 104° |
| 2026-04-29 18:39 | 50.82886 | 4.24423 | 37474 ft | 448 kts | 104° |
| 2026-04-29 18:39 | 50.82019 | 4.29144 | 37876 ft | 443 kts | 104° |
| 2026-04-29 18:40 | 50.81161 | 4.33807 | 38388 ft | 438 kts | 104° |
| 2026-04-29 18:40 | 50.80308 | 4.38430 | 38779 ft | 437 kts | 104° |
| 2026-04-29 18:40 | 50.79463 | 4.43001 | 39030 ft | 436 kts | 104° |
| 2026-04-29 18:40 | 50.78608 | 4.47614 | 39149 ft | 440 kts | 104° |
| 2026-04-29 18:41 | 50.76076 | 4.61212 | 39319 ft | 451 kts | 104° |
| 2026-04-29 18:42 | 50.75049 | 4.66701 | 39375 ft | 455 kts | 104° |
| 2026-04-29 18:42 | 50.73240 | 4.76316 | 39543 ft | 457 kts | 104° |
| 2026-04-29 18:43 | 50.72334 | 4.81115 | 39655 ft | 458 kts | 104° |
| 2026-04-29 18:43 | 50.71420 | 4.85943 | 39749 ft | 459 kts | 104° |
| 2026-04-29 18:43 | 50.70516 | 4.90703 | 39890 ft | 458 kts | 104° |
| 2026-04-29 18:43 | 50.70206 | 4.92333 | 39938 ft | 458 kts | 104° |
| 2026-04-29 18:44 | 50.69095 | 4.98167 | 40085 ft | 459 kts | 105° |
| 2026-04-29 18:44 | 50.67249 | 5.07817 | 40306 ft | 459 kts | 104° |
| 2026-04-29 18:45 | 50.66323 | 5.12641 | 40424 ft | 460 kts | 105° |
| 2026-04-29 18:45 | 50.65405 | 5.17407 | 40542 ft | 460 kts | 104° |
| 2026-04-29 18:45 | 50.64471 | 5.22246 | 40653 ft | 460 kts | 104° |
| 2026-04-29 18:45 | 50.63537 | 5.27078 | 40763 ft | 461 kts | 104° |
| 2026-04-29 18:46 | 50.61978 | 5.35113 | 40918 ft | 461 kts | 105° |
| 2026-04-29 18:46 | 50.61035 | 5.39954 | 41032 ft | 461 kts | 104° |
| 2026-04-29 18:46 | 50.60093 | 5.44780 | 41143 ft | 462 kts | 105° |
| 2026-04-29 18:47 | 50.57887 | 5.56024 | 41259 ft | 462 kts | 105° |
| 2026-04-29 18:47 | 50.56290 | 5.64131 | 41263 ft | 462 kts | 105° |
| 2026-04-29 18:48 | 50.54391 | 5.73723 | 41256 ft | 462 kts | 105° |
| 2026-04-29 18:48 | 50.52471 | 5.83374 | 41262 ft | 462 kts | 105° |
| 2026-04-29 18:49 | 50.50543 | 5.93022 | 41261 ft | 462 kts | 105° |
| 2026-04-29 18:49 | 50.48621 | 6.02587 | 41245 ft | 463 kts | 105° |
| 2026-04-29 18:50 | 50.46669 | 6.12253 | 41253 ft | 464 kts | 105° |
| 2026-04-29 18:50 | 50.44706 | 6.21927 | 41256 ft | 465 kts | 105° |
| 2026-04-29 18:51 | 50.42731 | 6.31612 | 41250 ft | 465 kts | 105° |
| 2026-04-29 18:51 | 50.41753 | 6.36381 | 41248 ft | 453 kts | 105° |
| 2026-04-29 18:51 | 50.40799 | 6.41022 | 41246 ft | 441 kts | 105° |
| 2026-04-29 18:52 | 50.38927 | 6.50119 | 41264 ft | 442 kts | 105° |
| 2026-04-29 18:52 | 50.37030 | 6.59316 | 41251 ft | 447 kts | 105° |
| 2026-04-29 18:53 | 50.35109 | 6.68553 | 41253 ft | 445 kts | 105° |
| 2026-04-29 18:53 | 50.33183 | 6.77783 | 41259 ft | 445 kts | 105° |
| 2026-04-29 18:54 | 50.31270 | 6.86903 | 41272 ft | 445 kts | 105° |
| 2026-04-29 18:54 | 50.29333 | 6.96093 | 41271 ft | 444 kts | 105° |
| 2026-04-29 18:55 | 50.27389 | 7.05282 | 41263 ft | 444 kts | 105° |
| 2026-04-29 18:55 | 50.25443 | 7.14439 | 41259 ft | 443 kts | 105° |
| 2026-04-29 18:56 | 50.23493 | 7.23575 | 41256 ft | 443 kts | 105° |
| 2026-04-29 18:56 | 50.21540 | 7.32681 | 41258 ft | 442 kts | 105° |
| 2026-04-29 18:57 | 50.19575 | 7.41798 | 41254 ft | 443 kts | 105° |
| 2026-04-29 18:57 | 50.17619 | 7.50843 | 41260 ft | 443 kts | 106° |
| 2026-04-29 18:58 | 50.15637 | 7.59965 | 41251 ft | 444 kts | 106° |
| 2026-04-29 18:58 | 50.13642 | 7.69103 | 41259 ft | 445 kts | 106° |
| 2026-04-29 18:59 | 50.11638 | 7.78237 | 41263 ft | 446 kts | 106° |
| 2026-04-29 18:59 | 50.09630 | 7.87353 | 41282 ft | 448 kts | 106° |
| 2026-04-29 19:00 | 50.07636 | 7.96369 | 41297 ft | 449 kts | 106° |
| 2026-04-29 19:00 | 50.05592 | 8.05573 | 41315 ft | 450 kts | 106° |
| 2026-04-29 19:01 | 50.03536 | 8.14785 | 41329 ft | 451 kts | 106° |
| 2026-04-29 19:01 | 50.01479 | 8.23958 | 41363 ft | 452 kts | 106° |
| 2026-04-29 19:02 | 49.99741 | 8.31683 | 41266 ft | 450 kts | 106° |
| 2026-04-29 19:02 | 49.98377 | 8.37734 | 40868 ft | 446 kts | 106° |
| 2026-04-29 19:02 | 49.97355 | 8.42262 | 40540 ft | 443 kts | 106° |
| 2026-04-29 19:03 | 49.96339 | 8.46754 | 40147 ft | 439 kts | 106° |
| 2026-04-29 19:03 | 49.95269 | 8.51178 | 39778 ft | 436 kts | 109° |
| 2026-04-29 19:03 | 49.93979 | 8.55439 | 39424 ft | 435 kts | 115° |
| 2026-04-29 19:03 | 49.92472 | 8.59508 | 39071 ft | 432 kts | 117° |
| 2026-04-29 19:04 | 49.90968 | 8.63525 | 38682 ft | 428 kts | 116° |
| 2026-04-29 19:04 | 49.89497 | 8.67514 | 38318 ft | 423 kts | 116° |
| 2026-04-29 19:04 | 49.88040 | 8.71477 | 37804 ft | 422 kts | 115° |
| 2026-04-29 19:04 | 49.86583 | 8.75435 | 37166 ft | 424 kts | 115° |
| 2026-04-29 19:05 | 49.85110 | 8.79420 | 36433 ft | 428 kts | 115° |
| 2026-04-29 19:05 | 49.83619 | 8.83434 | 35865 ft | 429 kts | 115° |
| 2026-04-29 19:05 | 49.82135 | 8.87415 | 35532 ft | 423 kts | 115° |
| 2026-04-29 19:05 | 49.80683 | 8.91302 | 35391 ft | 424 kts | 115° |
| 2026-04-29 19:06 | 49.77700 | 8.99305 | 35280 ft | 429 kts | 115° |
| 2026-04-29 19:07 | 49.73216 | 9.11291 | 35277 ft | 432 kts | 115° |
| 2026-04-29 19:07 | 49.70207 | 9.19301 | 35280 ft | 431 kts | 115° |
| 2026-04-29 19:08 | 49.67171 | 9.27362 | 35276 ft | 438 kts | 115° |
| 2026-04-29 19:08 | 49.64124 | 9.35420 | 35277 ft | 436 kts | 115° |
| 2026-04-29 19:09 | 49.60835 | 9.43321 | 35279 ft | 442 kts | 124° |
| 2026-04-29 19:09 | 49.56726 | 9.50472 | 35276 ft | 448 kts | 127° |
| 2026-04-29 19:10 | 49.52590 | 9.57672 | 35195 ft | 446 kts | 127° |
| 2026-04-29 19:10 | 49.50545 | 9.61241 | 34861 ft | 443 kts | 126° |
| 2026-04-29 19:10 | 49.48513 | 9.64786 | 34391 ft | 442 kts | 126° |
| 2026-04-29 19:10 | 49.46488 | 9.68316 | 33824 ft | 439 kts | 126° |
| 2026-04-29 19:11 | 49.44471 | 9.71830 | 33144 ft | 437 kts | 126° |
| 2026-04-29 19:11 | 49.42453 | 9.75339 | 32459 ft | 436 kts | 126° |
| 2026-04-29 19:11 | 49.40444 | 9.78829 | 31764 ft | 435 kts | 125° |
| 2026-04-29 19:11 | 49.38474 | 9.82244 | 31247 ft | 430 kts | 125° |
| 2026-04-29 19:12 | 49.36500 | 9.85655 | 30769 ft | 424 kts | 125° |
| 2026-04-29 19:12 | 49.34539 | 9.89042 | 29921 ft | 426 kts | 125° |
| 2026-04-29 19:12 | 49.32560 | 9.92463 | 28909 ft | 429 kts | 125° |
| 2026-04-29 19:12 | 49.31222 | 9.94773 | 28386 ft | 428 kts | 126° |
| 2026-04-29 19:13 | 49.28711 | 9.99095 | 27452 ft | 425 kts | 126° |
| 2026-04-29 19:13 | 49.26746 | 10.02466 | 26772 ft | 422 kts | 126° |
| 2026-04-29 19:13 | 49.24798 | 10.05801 | 26100 ft | 419 kts | 126° |
| 2026-04-29 19:13 | 49.22864 | 10.09112 | 25585 ft | 414 kts | 126° |
| 2026-04-29 19:14 | 49.20949 | 10.12388 | 25356 ft | 414 kts | 126° |
| 2026-04-29 19:14 | 49.19024 | 10.15683 | 25285 ft | 416 kts | 126° |
| 2026-04-29 19:14 | 49.17092 | 10.18991 | 25279 ft | 416 kts | 126° |
| 2026-04-29 19:14 | 49.15133 | 10.22349 | 25306 ft | 430 kts | 126° |
| 2026-04-29 19:15 | 49.13149 | 10.25728 | 25281 ft | 433 kts | 127° |
| 2026-04-29 19:15 | 49.11084 | 10.29082 | 25282 ft | 433 kts | 128° |
| 2026-04-29 19:15 | 49.09011 | 10.32378 | 25302 ft | 423 kts | 128° |
| 2026-04-29 19:15 | 49.07014 | 10.35533 | 25305 ft | 404 kts | 128° |
| 2026-04-29 19:16 | 49.05085 | 10.38602 | 25296 ft | 403 kts | 128° |
| 2026-04-29 19:16 | 49.03144 | 10.41720 | 25295 ft | 401 kts | 128° |
| 2026-04-29 19:16 | 49.01244 | 10.44762 | 25070 ft | 393 kts | 128° |
| 2026-04-29 19:16 | 48.99390 | 10.47724 | 24936 ft | 378 kts | 128° |
| 2026-04-29 19:17 | 48.97618 | 10.50541 | 24565 ft | 362 kts | 128° |
| 2026-04-29 19:17 | 48.95734 | 10.53095 | 23734 ft | 368 kts | 143° |
| 2026-04-29 19:17 | 48.93365 | 10.54635 | 22937 ft | 377 kts | 164° |
| 2026-04-29 19:17 | 48.90748 | 10.54876 | 22419 ft | 378 kts | 185° |
| 2026-04-29 19:18 | 48.88259 | 10.53845 | 21915 ft | 376 kts | 203° |
| 2026-04-29 19:18 | 48.86642 | 10.52760 | 21535 ft | 374 kts | 204° |
| 2026-04-29 19:18 | 48.83500 | 10.50645 | 20868 ft | 370 kts | 204° |
| 2026-04-29 19:18 | 48.81157 | 10.49080 | 20413 ft | 365 kts | 204° |
| 2026-04-29 19:19 | 48.78847 | 10.47549 | 19945 ft | 362 kts | 204° |
| 2026-04-29 19:19 | 48.76544 | 10.46033 | 19435 ft | 359 kts | 204° |
| 2026-04-29 19:19 | 48.74261 | 10.44536 | 18952 ft | 356 kts | 204° |
| 2026-04-29 19:19 | 48.71998 | 10.43058 | 18465 ft | 353 kts | 204° |
| 2026-04-29 19:20 | 48.69752 | 10.41596 | 17917 ft | 349 kts | 204° |
| 2026-04-29 19:20 | 48.67530 | 10.40152 | 17386 ft | 346 kts | 204° |
| 2026-04-29 19:20 | 48.65260 | 10.39020 | 16799 ft | 344 kts | 188° |
| 2026-04-29 19:20 | 48.62900 | 10.39104 | 16271 ft | 337 kts | 166° |
| 2026-04-29 19:21 | 48.60765 | 10.40437 | 15737 ft | 328 kts | 143° |
| 2026-04-29 19:21 | 48.59166 | 10.42789 | 15216 ft | 318 kts | 121° |
| 2026-04-29 19:21 | 48.58307 | 10.45791 | 14678 ft | 308 kts | 98° |
| 2026-04-29 19:21 | 48.58169 | 10.48938 | 14099 ft | 303 kts | 87° |
| 2026-04-29 19:22 | 48.58074 | 10.52117 | 13547 ft | 301 kts | 90° |
| 2026-04-29 19:22 | 48.57878 | 10.55222 | 13331 ft | 299 kts | 93° |
| 2026-04-29 19:22 | 48.57614 | 10.58365 | 13266 ft | 301 kts | 94° |
| 2026-04-29 19:22 | 48.57313 | 10.61490 | 13265 ft | 301 kts | 95° |
| 2026-04-29 19:23 | 48.56998 | 10.64614 | 13271 ft | 301 kts | 95° |
| 2026-04-29 19:23 | 48.56679 | 10.67745 | 13271 ft | 301 kts | 95° |